Terminal Aerodrome Forecast
Issued by NWS Jacksonville, FL

Home | Current Version | Previous Version | Text Only | Print | Product List | Glossary On
Versions: 1 2 3 4 5 6 7 8 9 10 11 12 13 14 15 16
274
FTUS42 KJAX 271733
TAFJAX
TAF
KJAX 271733Z 2718/2818 13015G20KT P6SM BKN035
     FM272200 12008KT P6SM VCTS BKN040CB BKN150
     FM280200 VRB04KT P6SM BKN250
     FM280700 VRB02KT 2SM BR SCT040
     FM280900 VRB02KT 1 1/2SM BR SCT002
      TEMPO 2809/2812 1/2SM FG OVC001
     FM281500 17006KT P6SM FEW050 SCT080=

USA.gov is the U.S. government's official web portal to all federal, state and local government web resources and services.